sensor_id;sensor_type;location;lat;lon;timestamp;P1;durP1;ratioP1;P2;durP2;ratioP2
36651;SDS011;53334;51.976;20.144;2024-01-06T00:01:21;11.85;;;8.40;;
36651;SDS011;53334;51.976;20.144;2024-01-06T00:03:55;12.75;;;9.10;;
36651;SDS011;53334;51.976;20.144;2024-01-06T00:06:29;12.23;;;9.07;;
36651;SDS011;53334;51.976;20.144;2024-01-06T00:09:02;11.13;;;7.68;;
36651;SDS011;53334;51.976;20.144;2024-01-06T00:11:35;10.68;;;8.68;;
36651;SDS011;53334;51.976;20.144;2024-01-06T00:14:09;9.45;;;7.95;;
36651;SDS011;53334;51.976;20.144;2024-01-06T00:16:42;12.15;;;8.68;;
36651;SDS011;53334;51.976;20.144;2024-01-06T00:19:16;10.18;;;7.68;;
36651;SDS011;53334;51.976;20.144;2024-01-06T00:21:50;11.13;;;8.63;;
36651;SDS011;53334;51.976;20.144;2024-01-06T00:24:23;12.98;;;9.38;;
36651;SDS011;53334;51.976;20.144;2024-01-06T00:26:56;17.52;;;8.60;;
36651;SDS011;53334;51.976;20.144;2024-01-06T00:29:30;8.80;;;7.50;;
36651;SDS011;53334;51.976;20.144;2024-01-06T00:32:03;12.18;;;7.38;;
36651;SDS011;53334;51.976;20.144;2024-01-06T00:34:38;9.55;;;8.07;;
36651;SDS011;53334;51.976;20.144;2024-01-06T00:37:11;9.95;;;7.57;;
36651;SDS011;53334;51.976;20.144;2024-01-06T00:39:45;9.80;;;7.55;;
36651;SDS011;53334;51.976;20.144;2024-01-06T00:42:18;8.55;;;7.20;;
36651;SDS011;53334;51.976;20.144;2024-01-06T00:44:51;10.57;;;7.93;;
36651;SDS011;53334;51.976;20.144;2024-01-06T00:47:24;9.60;;;7.30;;
36651;SDS011;53334;51.976;20.144;2024-01-06T00:49:59;11.27;;;7.63;;
36651;SDS011;53334;51.976;20.144;2024-01-06T00:52:32;7.90;;;6.93;;
36651;SDS011;53334;51.976;20.144;2024-01-06T00:55:06;12.73;;;7.50;;
36651;SDS011;53334;51.976;20.144;2024-01-06T01:00:13;8.23;;;7.32;;
36651;SDS011;53334;51.976;20.144;2024-01-06T01:02:46;8.75;;;7.47;;
36651;SDS011;53334;51.976;20.144;2024-01-06T01:05:21;10.30;;;7.93;;
36651;SDS011;53334;51.976;20.144;2024-01-06T01:07:54;8.95;;;7.22;;
36651;SDS011;53334;51.976;20.144;2024-01-06T01:10:27;8.82;;;6.47;;
36651;SDS011;53334;51.976;20.144;2024-01-06T01:13:00;9.13;;;7.40;;
36651;SDS011;53334;51.976;20.144;2024-01-06T01:15:34;9.25;;;7.10;;
36651;SDS011;53334;51.976;20.144;2024-01-06T01:18:07;10.85;;;8.13;;
36651;SDS011;53334;51.976;20.144;2024-01-06T01:20:42;10.32;;;7.90;;
36651;SDS011;53334;51.976;20.144;2024-01-06T01:23:15;11.43;;;8.43;;
36651;SDS011;53334;51.976;20.144;2024-01-06T01:25:48;12.65;;;7.38;;
36651;SDS011;53334;51.976;20.144;2024-01-06T01:28:21;9.68;;;7.03;;
36651;SDS011;53334;51.976;20.144;2024-01-06T01:30:55;6.85;;;6.15;;
36651;SDS011;53334;51.976;20.144;2024-01-06T01:33:28;8.15;;;6.03;;
36651;SDS011;53334;51.976;20.144;2024-01-06T01:36:03;9.07;;;6.85;;
36651;SDS011;53334;51.976;20.144;2024-01-06T01:38:37;8.00;;;6.72;;
36651;SDS011;53334;51.976;20.144;2024-01-06T01:41:10;8.38;;;7.00;;
36651;SDS011;53334;51.976;20.144;2024-01-06T01:43:43;9.20;;;7.00;;
36651;SDS011;53334;51.976;20.144;2024-01-06T01:46:17;9.05;;;6.80;;
36651;SDS011;53334;51.976;20.144;2024-01-06T01:48:52;9.40;;;7.07;;
36651;SDS011;53334;51.976;20.144;2024-01-06T01:51:28;8.90;;;7.32;;
36651;SDS011;53334;51.976;20.144;2024-01-06T01:54:04;9.18;;;6.93;;
36651;SDS011;53334;51.976;20.144;2024-01-06T01:56:38;7.72;;;6.88;;
36651;SDS011;53334;51.976;20.144;2024-01-06T01:59:13;9.45;;;6.18;;
36651;SDS011;53334;51.976;20.144;2024-01-06T02:01:49;9.13;;;6.75;;
36651;SDS011;53334;51.976;20.144;2024-01-06T02:04:22;14.07;;;8.07;;
36651;SDS011;53334;51.976;20.144;2024-01-06T02:06:57;8.27;;;6.53;;
36651;SDS011;53334;51.976;20.144;2024-01-06T02:09:30;8.00;;;6.47;;
36651;SDS011;53334;51.976;20.144;2024-01-06T02:12:03;6.28;;;5.68;;
36651;SDS011;53334;51.976;20.144;2024-01-06T02:17:10;8.25;;;6.85;;
36651;SDS011;53334;51.976;20.144;2024-01-06T02:19:43;7.72;;;6.38;;
36651;SDS011;53334;51.976;20.144;2024-01-06T02:22:18;9.65;;;7.18;;
36651;SDS011;53334;51.976;20.144;2024-01-06T02:24:51;8.40;;;6.68;;
36651;SDS011;53334;51.976;20.144;2024-01-06T02:27:25;8.68;;;6.57;;
36651;SDS011;53334;51.976;20.144;2024-01-06T02:29:58;10.95;;;7.68;;
36651;SDS011;53334;51.976;20.144;2024-01-06T02:32:32;7.97;;;6.40;;
36651;SDS011;53334;51.976;20.144;2024-01-06T02:35:06;10.90;;;6.80;;
36651;SDS011;53334;51.976;20.144;2024-01-06T02:37:41;8.48;;;5.97;;
36651;SDS011;53334;51.976;20.144;2024-01-06T02:40:14;11.38;;;6.85;;
36651;SDS011;53334;51.976;20.144;2024-01-06T02:42:47;8.00;;;6.82;;
36651;SDS011;53334;51.976;20.144;2024-01-06T02:45:21;8.55;;;6.82;;
36651;SDS011;53334;51.976;20.144;2024-01-06T02:47:54;7.97;;;6.32;;
36651;SDS011;53334;51.976;20.144;2024-01-06T02:50:27;7.20;;;6.50;;
36651;SDS011;53334;51.976;20.144;2024-01-06T02:53:02;7.95;;;5.93;;
36651;SDS011;53334;51.976;20.144;2024-01-06T02:55:36;7.15;;;6.03;;
36651;SDS011;53334;51.976;20.144;2024-01-06T02:58:09;7.05;;;6.32;;
36651;SDS011;53334;51.976;20.144;2024-01-06T03:00:42;7.90;;;5.70;;
36651;SDS011;53334;51.976;20.144;2024-01-06T03:03:15;11.10;;;6.38;;
36651;SDS011;53334;51.976;20.144;2024-01-06T03:05:48;8.13;;;6.35;;
36651;SDS011;53334;51.976;20.144;2024-01-06T03:08:23;8.45;;;7.03;;
36651;SDS011;53334;51.976;20.144;2024-01-06T03:10:56;10.60;;;6.72;;
36651;SDS011;53334;51.976;20.144;2024-01-06T03:13:29;7.70;;;6.57;;
36651;SDS011;53334;51.976;20.144;2024-01-06T03:16:03;7.80;;;6.57;;
36651;SDS011;53334;51.976;20.144;2024-01-06T03:18:37;7.22;;;5.85;;
36651;SDS011;53334;51.976;20.144;2024-01-06T03:21:16;8.30;;;6.65;;
36651;SDS011;53334;51.976;20.144;2024-01-06T03:23:51;7.75;;;6.38;;
36651;SDS011;53334;51.976;20.144;2024-01-06T03:26:26;6.82;;;5.88;;
36651;SDS011;53334;51.976;20.144;2024-01-06T03:28:59;7.45;;;6.15;;
36651;SDS011;53334;51.976;20.144;2024-01-06T03:31:34;8.18;;;6.55;;
36651;SDS011;53334;51.976;20.144;2024-01-06T03:34:07;6.35;;;5.53;;
36651;SDS011;53334;51.976;20.144;2024-01-06T03:36:42;6.38;;;5.32;;
36651;SDS011;53334;51.976;20.144;2024-01-06T03:39:17;7.80;;;6.30;;
36651;SDS011;53334;51.976;20.144;2024-01-06T03:41:50;6.38;;;5.28;;
36651;SDS011;53334;51.976;20.144;2024-01-06T03:44:23;7.30;;;6.35;;
36651;SDS011;53334;51.976;20.144;2024-01-06T03:47:01;8.05;;;6.60;;
36651;SDS011;53334;51.976;20.144;2024-01-06T03:49:34;10.38;;;6.60;;
36651;SDS011;53334;51.976;20.144;2024-01-06T03:52:08;19.95;;;6.60;;
36651;SDS011;53334;51.976;20.144;2024-01-06T03:54:42;6.65;;;5.95;;
36651;SDS011;53334;51.976;20.144;2024-01-06T03:57:16;9.18;;;7.20;;
36651;SDS011;53334;51.976;20.144;2024-01-06T03:59:49;7.43;;;6.38;;
36651;SDS011;53334;51.976;20.144;2024-01-06T04:02:22;7.18;;;5.63;;
36651;SDS011;53334;51.976;20.144;2024-01-06T04:04:55;5.90;;;5.30;;
36651;SDS011;53334;51.976;20.144;2024-01-06T04:07:29;7.72;;;6.15;;
36651;SDS011;53334;51.976;20.144;2024-01-06T04:10:04;10.60;;;6.55;;
36651;SDS011;53334;51.976;20.144;2024-01-06T04:12:37;7.10;;;5.88;;
36651;SDS011;53334;51.976;20.144;2024-01-06T04:15:10;7.65;;;6.22;;
36651;SDS011;53334;51.976;20.144;2024-01-06T04:17:44;7.50;;;6.10;;
36651;SDS011;53334;51.976;20.144;2024-01-06T04:20:20;7.22;;;6.07;;
36651;SDS011;53334;51.976;20.144;2024-01-06T04:22:54;8.60;;;5.70;;
36651;SDS011;53334;51.976;20.144;2024-01-06T04:25:28;7.68;;;6.13;;
36651;SDS011;53334;51.976;20.144;2024-01-06T04:28:01;7.95;;;6.43;;
36651;SDS011;53334;51.976;20.144;2024-01-06T04:30:35;6.88;;;6.13;;
36651;SDS011;53334;51.976;20.144;2024-01-06T04:33:08;8.10;;;6.63;;
36651;SDS011;53334;51.976;20.144;2024-01-06T04:35:41;7.22;;;6.10;;
36651;SDS011;53334;51.976;20.144;2024-01-06T04:38:15;7.15;;;6.10;;
36651;SDS011;53334;51.976;20.144;2024-01-06T04:40:49;7.00;;;6.15;;
36651;SDS011;53334;51.976;20.144;2024-01-06T04:43:22;7.00;;;5.93;;
36651;SDS011;53334;51.976;20.144;2024-01-06T04:45:56;7.43;;;6.55;;
36651;SDS011;53334;51.976;20.144;2024-01-06T04:51:03;6.97;;;5.40;;
36651;SDS011;53334;51.976;20.144;2024-01-06T04:53:36;7.32;;;5.68;;
36651;SDS011;53334;51.976;20.144;2024-01-06T04:56:12;7.10;;;5.88;;
36651;SDS011;53334;51.976;20.144;2024-01-06T04:58:45;7.95;;;5.63;;
36651;SDS011;53334;51.976;20.144;2024-01-06T05:01:18;7.13;;;6.00;;
36651;SDS011;53334;51.976;20.144;2024-01-06T05:03:52;7.00;;;5.85;;
36651;SDS011;53334;51.976;20.144;2024-01-06T05:06:25;6.15;;;5.15;;
36651;SDS011;53334;51.976;20.144;2024-01-06T05:08:58;6.22;;;5.55;;
36651;SDS011;53334;51.976;20.144;2024-01-06T05:11:33;6.88;;;5.45;;
36651;SDS011;53334;51.976;20.144;2024-01-06T05:14:06;7.72;;;5.63;;
36651;SDS011;53334;51.976;20.144;2024-01-06T05:16:39;6.35;;;5.30;;
36651;SDS011;53334;51.976;20.144;2024-01-06T05:19:13;8.63;;;6.18;;
36651;SDS011;53334;51.976;20.144;2024-01-06T05:21:51;6.47;;;5.50;;
36651;SDS011;53334;51.976;20.144;2024-01-06T05:24:24;9.57;;;5.80;;
36651;SDS011;53334;51.976;20.144;2024-01-06T05:26:59;6.85;;;5.88;;
36651;SDS011;53334;51.976;20.144;2024-01-06T05:29:32;6.82;;;5.38;;
36651;SDS011;53334;51.976;20.144;2024-01-06T05:32:06;5.97;;;5.38;;
36651;SDS011;53334;51.976;20.144;2024-01-06T05:34:39;6.25;;;5.65;;
36651;SDS011;53334;51.976;20.144;2024-01-06T05:37:12;7.97;;;5.30;;
36651;SDS011;53334;51.976;20.144;2024-01-06T05:39:46;7.00;;;5.38;;
36651;SDS011;53334;51.976;20.144;2024-01-06T05:42:20;7.63;;;5.40;;
36651;SDS011;53334;51.976;20.144;2024-01-06T05:44:53;6.50;;;5.50;;
36651;SDS011;53334;51.976;20.144;2024-01-06T05:47:27;6.55;;;5.88;;
36651;SDS011;53334;51.976;20.144;2024-01-06T05:50:00;6.97;;;5.45;;
36651;SDS011;53334;51.976;20.144;2024-01-06T05:52:33;7.53;;;5.97;;
36651;SDS011;53334;51.976;20.144;2024-01-06T05:55:07;6.35;;;5.05;;
36651;SDS011;53334;51.976;20.144;2024-01-06T05:57:42;6.38;;;5.07;;
36651;SDS011;53334;51.976;20.144;2024-01-06T06:00:16;8.07;;;6.07;;
36651;SDS011;53334;51.976;20.144;2024-01-06T06:02:49;7.03;;;5.95;;
36651;SDS011;53334;51.976;20.144;2024-01-06T06:05:22;8.20;;;5.55;;
36651;SDS011;53334;51.976;20.144;2024-01-06T06:07:56;6.47;;;5.32;;
36651;SDS011;53334;51.976;20.144;2024-01-06T06:10:29;6.68;;;4.95;;
36651;SDS011;53334;51.976;20.144;2024-01-06T06:13:13;6.77;;;5.70;;
36651;SDS011;53334;51.976;20.144;2024-01-06T06:15:47;7.20;;;5.72;;
36651;SDS011;53334;51.976;20.144;2024-01-06T06:18:20;7.32;;;5.70;;
36651;SDS011;53334;51.976;20.144;2024-01-06T06:20:53;8.88;;;5.65;;
36651;SDS011;53334;51.976;20.144;2024-01-06T06:23:27;7.47;;;5.50;;
36651;SDS011;53334;51.976;20.144;2024-01-06T06:26:03;5.75;;;4.70;;
36651;SDS011;53334;51.976;20.144;2024-01-06T06:28:38;6.65;;;5.18;;
36651;SDS011;53334;51.976;20.144;2024-01-06T06:31:12;6.57;;;5.03;;
36651;SDS011;53334;51.976;20.144;2024-01-06T06:33:45;5.25;;;4.68;;
36651;SDS011;53334;51.976;20.144;2024-01-06T06:36:18;6.20;;;5.40;;
36651;SDS011;53334;51.976;20.144;2024-01-06T06:38:52;10.43;;;5.18;;
36651;SDS011;53334;51.976;20.144;2024-01-06T06:41:26;7.07;;;5.07;;
36651;SDS011;53334;51.976;20.144;2024-01-06T06:44:00;5.80;;;4.78;;
36651;SDS011;53334;51.976;20.144;2024-01-06T06:46:33;6.00;;;5.18;;
36651;SDS011;53334;51.976;20.144;2024-01-06T06:49:06;5.32;;;4.72;;
36651;SDS011;53334;51.976;20.144;2024-01-06T06:51:40;7.38;;;5.15;;
36651;SDS011;53334;51.976;20.144;2024-01-06T06:54:18;6.20;;;5.13;;
36651;SDS011;53334;51.976;20.144;2024-01-06T06:56:52;6.13;;;4.97;;
36651;SDS011;53334;51.976;20.144;2024-01-06T06:59:26;5.28;;;4.63;;
36651;SDS011;53334;51.976;20.144;2024-01-06T07:01:59;6.90;;;4.95;;
36651;SDS011;53334;51.976;20.144;2024-01-06T07:04:33;5.35;;;4.50;;
36651;SDS011;53334;51.976;20.144;2024-01-06T07:07:06;6.65;;;4.75;;
36651;SDS011;53334;51.976;20.144;2024-01-06T07:09:40;5.60;;;5.03;;
36651;SDS011;53334;51.976;20.144;2024-01-06T07:12:13;6.13;;;5.10;;
36651;SDS011;53334;51.976;20.144;2024-01-06T07:14:47;6.25;;;5.00;;
36651;SDS011;53334;51.976;20.144;2024-01-06T07:17:21;7.20;;;5.32;;
36651;SDS011;53334;51.976;20.144;2024-01-06T07:19:54;8.88;;;6.13;;
36651;SDS011;53334;51.976;20.144;2024-01-06T07:22:27;8.48;;;5.35;;
36651;SDS011;53334;51.976;20.144;2024-01-06T07:25:00;7.32;;;5.95;;
36651;SDS011;53334;51.976;20.144;2024-01-06T07:27:33;6.95;;;5.07;;
36651;SDS011;53334;51.976;20.144;2024-01-06T07:30:09;6.95;;;5.32;;
36651;SDS011;53334;51.976;20.144;2024-01-06T07:32:42;9.65;;;6.20;;
36651;SDS011;53334;51.976;20.144;2024-01-06T07:35:16;18.02;;;6.32;;
36651;SDS011;53334;51.976;20.144;2024-01-06T07:37:49;10.63;;;6.68;;
36651;SDS011;53334;51.976;20.144;2024-01-06T07:40:22;9.75;;;6.30;;
36651;SDS011;53334;51.976;20.144;2024-01-06T07:42:57;7.28;;;5.47;;
36651;SDS011;53334;51.976;20.144;2024-01-06T07:45:31;8.45;;;6.32;;
36651;SDS011;53334;51.976;20.144;2024-01-06T07:48:05;9.85;;;6.40;;
36651;SDS011;53334;51.976;20.144;2024-01-06T07:50:39;14.40;;;6.18;;
36651;SDS011;53334;51.976;20.144;2024-01-06T07:53:12;8.20;;;6.22;;
36651;SDS011;53334;51.976;20.144;2024-01-06T07:55:46;9.93;;;6.20;;
36651;SDS011;53334;51.976;20.144;2024-01-06T07:58:19;8.85;;;5.57;;
36651;SDS011;53334;51.976;20.144;2024-01-06T08:03:27;15.07;;;7.15;;
36651;SDS011;53334;51.976;20.144;2024-01-06T08:06:01;7.38;;;5.53;;
36651;SDS011;53334;51.976;20.144;2024-01-06T08:08:35;7.65;;;5.50;;
36651;SDS011;53334;51.976;20.144;2024-01-06T08:11:08;6.97;;;5.28;;
36651;SDS011;53334;51.976;20.144;2024-01-06T08:16:16;11.10;;;9.95;;
36651;SDS011;53334;51.976;20.144;2024-01-06T08:18:50;12.63;;;10.70;;
36651;SDS011;53334;51.976;20.144;2024-01-06T08:21:23;10.57;;;8.25;;
36651;SDS011;53334;51.976;20.144;2024-01-06T08:23:56;9.32;;;8.27;;
36651;SDS011;53334;51.976;20.144;2024-01-06T08:26:30;12.50;;;8.38;;
36651;SDS011;53334;51.976;20.144;2024-01-06T08:29:03;10.10;;;8.48;;
36651;SDS011;53334;51.976;20.144;2024-01-06T08:31:38;9.30;;;8.23;;
36651;SDS011;53334;51.976;20.144;2024-01-06T08:34:11;12.07;;;7.90;;
36651;SDS011;53334;51.976;20.144;2024-01-06T08:36:45;8.57;;;7.55;;
36651;SDS011;53334;51.976;20.144;2024-01-06T08:39:18;13.45;;;7.10;;
36651;SDS011;53334;51.976;20.144;2024-01-06T08:41:53;8.57;;;6.88;;
36651;SDS011;53334;51.976;20.144;2024-01-06T08:44:30;8.82;;;6.40;;
36651;SDS011;53334;51.976;20.144;2024-01-06T08:47:05;13.20;;;6.55;;
36651;SDS011;53334;51.976;20.144;2024-01-06T08:49:38;10.15;;;7.00;;
36651;SDS011;53334;51.976;20.144;2024-01-06T08:52:11;11.68;;;7.40;;
36651;SDS011;53334;51.976;20.144;2024-01-06T08:54:44;9.00;;;7.40;;
36651;SDS011;53334;51.976;20.144;2024-01-06T08:57:18;9.30;;;7.55;;
36651;SDS011;53334;51.976;20.144;2024-01-06T08:59:51;16.17;;;8.25;;
36651;SDS011;53334;51.976;20.144;2024-01-06T09:02:25;11.73;;;7.38;;
36651;SDS011;53334;51.976;20.144;2024-01-06T09:04:59;24.42;;;9.27;;
36651;SDS011;53334;51.976;20.144;2024-01-06T09:07:32;18.83;;;9.68;;
36651;SDS011;53334;51.976;20.144;2024-01-06T09:10:05;14.77;;;8.27;;
36651;SDS011;53334;51.976;20.144;2024-01-06T09:15:12;24.35;;;9.93;;
36651;SDS011;53334;51.976;20.144;2024-01-06T09:17:46;31.67;;;10.35;;
36651;SDS011;53334;51.976;20.144;2024-01-06T09:20:20;21.60;;;11.13;;
36651;SDS011;53334;51.976;20.144;2024-01-06T09:22:54;29.23;;;11.70;;
36651;SDS011;53334;51.976;20.144;2024-01-06T09:25:27;32.00;;;11.77;;
36651;SDS011;53334;51.976;20.144;2024-01-06T09:28:01;31.88;;;11.90;;
36651;SDS011;53334;51.976;20.144;2024-01-06T09:30:34;21.08;;;10.80;;
36651;SDS011;53334;51.976;20.144;2024-01-06T09:33:10;27.50;;;11.15;;
36651;SDS011;53334;51.976;20.144;2024-01-06T09:35:47;31.02;;;11.80;;
36651;SDS011;53334;51.976;20.144;2024-01-06T09:38:20;24.77;;;11.18;;
36651;SDS011;53334;51.976;20.144;2024-01-06T09:40:54;23.58;;;10.13;;
36651;SDS011;53334;51.976;20.144;2024-01-06T09:43:29;24.38;;;11.30;;
36651;SDS011;53334;51.976;20.144;2024-01-06T09:46:08;24.98;;;10.82;;
36651;SDS011;53334;51.976;20.144;2024-01-06T09:48:49;31.63;;;12.00;;
36651;SDS011;53334;51.976;20.144;2024-01-06T09:51:25;32.13;;;12.73;;
36651;SDS011;53334;51.976;20.144;2024-01-06T09:54:01;19.77;;;9.50;;
36651;SDS011;53334;51.976;20.144;2024-01-06T09:56:39;22.50;;;12.27;;
36651;SDS011;53334;51.976;20.144;2024-01-06T09:59:12;30.65;;;13.25;;
36651;SDS011;53334;51.976;20.144;2024-01-06T10:01:45;27.17;;;14.02;;
36651;SDS011;53334;51.976;20.144;2024-01-06T10:04:20;23.80;;;13.18;;
36651;SDS011;53334;51.976;20.144;2024-01-06T10:06:55;22.30;;;10.95;;
36651;SDS011;53334;51.976;20.144;2024-01-06T10:09:28;29.52;;;13.77;;
36651;SDS011;53334;51.976;20.144;2024-01-06T10:12:02;23.27;;;11.38;;
36651;SDS011;53334;51.976;20.144;2024-01-06T10:17:10;22.23;;;10.55;;
36651;SDS011;53334;51.976;20.144;2024-01-06T10:19:45;21.30;;;11.32;;
36651;SDS011;53334;51.976;20.144;2024-01-06T10:22:19;23.52;;;12.13;;
36651;SDS011;53334;51.976;20.144;2024-01-06T10:24:53;20.35;;;11.15;;
36651;SDS011;53334;51.976;20.144;2024-01-06T10:27:27;30.10;;;14.60;;
36651;SDS011;53334;51.976;20.144;2024-01-06T10:30:00;18.02;;;9.80;;
36651;SDS011;53334;51.976;20.144;2024-01-06T10:32:36;19.67;;;11.40;;
36651;SDS011;53334;51.976;20.144;2024-01-06T10:35:11;24.58;;;12.85;;
36651;SDS011;53334;51.976;20.144;2024-01-06T10:37:44;15.00;;;10.45;;
36651;SDS011;53334;51.976;20.144;2024-01-06T10:40:18;17.42;;;10.63;;
36651;SDS011;53334;51.976;20.144;2024-01-06T10:42:51;17.02;;;11.85;;
36651;SDS011;53334;51.976;20.144;2024-01-06T10:45:24;14.68;;;10.10;;
36651;SDS011;53334;51.976;20.144;2024-01-06T10:48:00;16.70;;;11.55;;
36651;SDS011;53334;51.976;20.144;2024-01-06T10:50:38;17.58;;;11.25;;
36651;SDS011;53334;51.976;20.144;2024-01-06T10:53:12;16.70;;;10.90;;
36651;SDS011;53334;51.976;20.144;2024-01-06T10:55:47;13.82;;;9.02;;
36651;SDS011;53334;51.976;20.144;2024-01-06T10:58:26;16.98;;;11.25;;
36651;SDS011;53334;51.976;20.144;2024-01-06T11:01:00;17.65;;;11.90;;
36651;SDS011;53334;51.976;20.144;2024-01-06T11:06:10;16.27;;;12.23;;
36651;SDS011;53334;51.976;20.144;2024-01-06T11:08:46;16.83;;;12.57;;
36651;SDS011;53334;51.976;20.144;2024-01-06T11:11:23;17.55;;;12.13;;
36651;SDS011;53334;51.976;20.144;2024-01-06T11:16:52;15.77;;;11.40;;
36651;SDS011;53334;51.976;20.144;2024-01-06T11:19:42;12.88;;;10.45;;
36651;SDS011;53334;51.976;20.144;2024-01-06T11:22:23;11.50;;;9.48;;
36651;SDS011;53334;51.976;20.144;2024-01-06T11:25:03;11.85;;;9.23;;
36651;SDS011;53334;51.976;20.144;2024-01-06T11:27:39;13.73;;;10.25;;
36651;SDS011;53334;51.976;20.144;2024-01-06T11:30:20;13.90;;;9.75;;
36651;SDS011;53334;51.976;20.144;2024-01-06T11:32:56;13.50;;;9.88;;
36651;SDS011;53334;51.976;20.144;2024-01-06T11:35:30;11.40;;;8.77;;
36651;SDS011;53334;51.976;20.144;2024-01-06T11:38:06;9.52;;;7.25;;
36651;SDS011;53334;51.976;20.144;2024-01-06T11:40:40;8.60;;;7.65;;
36651;SDS011;53334;51.976;20.144;2024-01-06T11:43:14;10.75;;;8.50;;
36651;SDS011;53334;51.976;20.144;2024-01-06T11:45:48;12.27;;;9.13;;
36651;SDS011;53334;51.976;20.144;2024-01-06T11:48:23;8.48;;;7.65;;
36651;SDS011;53334;51.976;20.144;2024-01-06T11:50:59;9.55;;;8.10;;
36651;SDS011;53334;51.976;20.144;2024-01-06T11:53:33;9.43;;;8.43;;
36651;SDS011;53334;51.976;20.144;2024-01-06T11:56:07;10.20;;;8.68;;
36651;SDS011;53334;51.976;20.144;2024-01-06T11:58:40;10.43;;;7.90;;
36651;SDS011;53334;51.976;20.144;2024-01-06T12:01:13;9.75;;;7.90;;
36651;SDS011;53334;51.976;20.144;2024-01-06T12:03:48;10.68;;;7.97;;
36651;SDS011;53334;51.976;20.144;2024-01-06T12:06:26;12.10;;;7.93;;
36651;SDS011;53334;51.976;20.144;2024-01-06T12:09:04;9.27;;;6.60;;
36651;SDS011;53334;51.976;20.144;2024-01-06T12:11:37;8.10;;;6.57;;
36651;SDS011;53334;51.976;20.144;2024-01-06T12:14:11;7.82;;;7.03;;
36651;SDS011;53334;51.976;20.144;2024-01-06T12:16:44;9.73;;;6.32;;
36651;SDS011;53334;51.976;20.144;2024-01-06T12:19:17;6.70;;;5.82;;
36651;SDS011;53334;51.976;20.144;2024-01-06T12:21:50;7.53;;;6.18;;
36651;SDS011;53334;51.976;20.144;2024-01-06T12:24:26;10.70;;;7.07;;
36651;SDS011;53334;51.976;20.144;2024-01-06T12:27:01;6.90;;;6.15;;
36651;SDS011;53334;51.976;20.144;2024-01-06T12:29:34;7.85;;;6.30;;
36651;SDS011;53334;51.976;20.144;2024-01-06T12:32:11;6.95;;;6.22;;
36651;SDS011;53334;51.976;20.144;2024-01-06T12:34:45;6.63;;;5.90;;
36651;SDS011;53334;51.976;20.144;2024-01-06T12:37:19;8.48;;;6.57;;
36651;SDS011;53334;51.976;20.144;2024-01-06T12:39:53;7.68;;;6.65;;
36651;SDS011;53334;51.976;20.144;2024-01-06T12:42:26;10.35;;;6.40;;
36651;SDS011;53334;51.976;20.144;2024-01-06T12:45:00;12.55;;;6.78;;
36651;SDS011;53334;51.976;20.144;2024-01-06T12:47:35;8.50;;;5.97;;
36651;SDS011;53334;51.976;20.144;2024-01-06T12:50:08;17.35;;;7.03;;
36651;SDS011;53334;51.976;20.144;2024-01-06T12:52:42;11.95;;;6.32;;
36651;SDS011;53334;51.976;20.144;2024-01-06T12:55:18;14.23;;;6.40;;
36651;SDS011;53334;51.976;20.144;2024-01-06T12:57:51;7.88;;;6.10;;
36651;SDS011;53334;51.976;20.144;2024-01-06T13:00:25;8.38;;;6.40;;
36651;SDS011;53334;51.976;20.144;2024-01-06T13:02:58;9.73;;;6.55;;
36651;SDS011;53334;51.976;20.144;2024-01-06T13:05:31;9.10;;;6.55;;
36651;SDS011;53334;51.976;20.144;2024-01-06T13:08:05;8.85;;;5.70;;
36651;SDS011;53334;51.976;20.144;2024-01-06T13:10:40;9.40;;;6.95;;
36651;SDS011;53334;51.976;20.144;2024-01-06T13:13:13;13.93;;;7.85;;
36651;SDS011;53334;51.976;20.144;2024-01-06T13:15:46;18.00;;;7.50;;
36651;SDS011;53334;51.976;20.144;2024-01-06T13:18:20;14.93;;;7.97;;
36651;SDS011;53334;51.976;20.144;2024-01-06T13:20:53;13.20;;;8.07;;
36651;SDS011;53334;51.976;20.144;2024-01-06T13:23:26;20.17;;;9.68;;
36651;SDS011;53334;51.976;20.144;2024-01-06T13:26:01;21.65;;;9.52;;
36651;SDS011;53334;51.976;20.144;2024-01-06T13:28:35;16.35;;;9.52;;
36651;SDS011;53334;51.976;20.144;2024-01-06T13:31:08;15.43;;;9.07;;
36651;SDS011;53334;51.976;20.144;2024-01-06T13:33:41;20.10;;;9.70;;
36651;SDS011;53334;51.976;20.144;2024-01-06T13:36:15;17.13;;;9.07;;
36651;SDS011;53334;51.976;20.144;2024-01-06T13:38:49;14.82;;;8.55;;
36651;SDS011;53334;51.976;20.144;2024-01-06T13:41:24;14.70;;;8.00;;
36651;SDS011;53334;51.976;20.144;2024-01-06T13:43:57;19.20;;;8.75;;
36651;SDS011;53334;51.976;20.144;2024-01-06T13:46:30;43.38;;;7.93;;
36651;SDS011;53334;51.976;20.144;2024-01-06T13:49:03;13.43;;;7.18;;
36651;SDS011;53334;51.976;20.144;2024-01-06T13:51:37;10.80;;;7.18;;
36651;SDS011;53334;51.976;20.144;2024-01-06T13:56:48;20.67;;;7.32;;
36651;SDS011;53334;51.976;20.144;2024-01-06T13:59:21;17.52;;;8.13;;
36651;SDS011;53334;51.976;20.144;2024-01-06T14:01:54;13.90;;;7.57;;
36651;SDS011;53334;51.976;20.144;2024-01-06T14:04:28;14.43;;;7.57;;
36651;SDS011;53334;51.976;20.144;2024-01-06T14:07:01;12.80;;;8.02;;
36651;SDS011;53334;51.976;20.144;2024-01-06T14:09:36;14.57;;;7.65;;
36651;SDS011;53334;51.976;20.144;2024-01-06T14:12:11;13.02;;;8.02;;
36651;SDS011;53334;51.976;20.144;2024-01-06T14:14:45;9.43;;;6.47;;
36651;SDS011;53334;51.976;20.144;2024-01-06T14:17:18;16.02;;;6.90;;
36651;SDS011;53334;51.976;20.144;2024-01-06T14:19:52;15.80;;;7.35;;
36651;SDS011;53334;51.976;20.144;2024-01-06T14:22:25;12.35;;;6.20;;
36651;SDS011;53334;51.976;20.144;2024-01-06T14:24:58;11.88;;;6.45;;
36651;SDS011;53334;51.976;20.144;2024-01-06T14:27:38;12.40;;;6.47;;
36651;SDS011;53334;51.976;20.144;2024-01-06T14:30:11;14.63;;;6.68;;
36651;SDS011;53334;51.976;20.144;2024-01-06T14:32:45;15.35;;;7.22;;
36651;SDS011;53334;51.976;20.144;2024-01-06T14:35:18;18.58;;;7.50;;
36651;SDS011;53334;51.976;20.144;2024-01-06T14:37:51;15.07;;;6.70;;
36651;SDS011;53334;51.976;20.144;2024-01-06T14:40:25;15.45;;;6.22;;
36651;SDS011;53334;51.976;20.144;2024-01-06T14:43:00;16.17;;;6.80;;
36651;SDS011;53334;51.976;20.144;2024-01-06T14:45:34;8.68;;;5.78;;
36651;SDS011;53334;51.976;20.144;2024-01-06T14:48:07;13.70;;;6.97;;
36651;SDS011;53334;51.976;20.144;2024-01-06T14:50:40;8.45;;;6.22;;
36651;SDS011;53334;51.976;20.144;2024-01-06T14:53:13;9.57;;;6.50;;
36651;SDS011;53334;51.976;20.144;2024-01-06T14:55:47;14.63;;;6.38;;
36651;SDS011;53334;51.976;20.144;2024-01-06T14:58:21;11.02;;;5.85;;
36651;SDS011;53334;51.976;20.144;2024-01-06T15:00:54;8.68;;;5.95;;
36651;SDS011;53334;51.976;20.144;2024-01-06T15:03:28;15.52;;;6.45;;
36651;SDS011;53334;51.976;20.144;2024-01-06T15:06:02;10.40;;;6.38;;
36651;SDS011;53334;51.976;20.144;2024-01-06T15:11:08;9.82;;;5.80;;
36651;SDS011;53334;51.976;20.144;2024-01-06T15:13:43;14.07;;;6.65;;
36651;SDS011;53334;51.976;20.144;2024-01-06T15:16:17;11.52;;;5.63;;
36651;SDS011;53334;51.976;20.144;2024-01-06T15:18:50;15.25;;;6.70;;
36651;SDS011;53334;51.976;20.144;2024-01-06T15:21:23;13.32;;;6.50;;
36651;SDS011;53334;51.976;20.144;2024-01-06T15:23:57;12.35;;;6.40;;
36651;SDS011;53334;51.976;20.144;2024-01-06T15:26:31;12.85;;;5.60;;
36651;SDS011;53334;51.976;20.144;2024-01-06T15:29:05;7.57;;;5.72;;
36651;SDS011;53334;51.976;20.144;2024-01-06T15:31:38;9.60;;;5.78;;
36651;SDS011;53334;51.976;20.144;2024-01-06T15:34:12;9.18;;;6.47;;